Madeline — WDF2406 — position and weather

sailwx.info

Track history (hours):
 
Tides and Currents Weather Stations Pressure Air Temp Water Temp Dewpoint Dewpoint Depression Visibility Wind Speed Wind Dir Waves Ship Positions

Madeline

Owner: Enterprise Marine Services, LLC, San Antonio, TX. More information available from US FCC via Universal Licensing System and Coast Guard Vessel Documentation Center.

Last reported at 2016-Dec-21 20:14 UTC. Time now 2017-Jan-16 11:03 UTC.
Position N 29°49' W 091°49'.
Warning: this ship's position is 25 days out of date.

; draft 3 m.

Type: Ship (hazmat cat B). MMSI: 367350460.

Date/timePositionNaut miles runAvg speedWind from/ knotsBaromVisibWave heightAir tempDewpointWater temp
2016-Dec-21 20:14N 29°49' W 091°49'4 4.3
2016-Dec-21 19:12N 29°51' W 091°54'3 5.2
2016-Dec-21 18:33N 29°50' W 091°58'5 5.2
2016-Dec-21 17:33N 29°49' W 092°04'5 5.4
2016-Dec-21 16:33N 29°47' W 092°09'4 3.7
2016-Dec-21 15:33N 29°48' W 092°14'2 1.7
2016-Dec-21 14:33N 29°48' W 092°15'4 4.4
2016-Dec-21 13:33N 29°51' W 092°20'5 4.5
2016-Dec-21 12:33N 29°53' W 092°24'10 4.7
2016-Dec-21 10:23N 29°55' W 092°36'5 4.2
2016-Dec-21 09:15N 29°56' W 092°41'4 4.6
2016-Dec-21 08:16N 29°58' W 092°46'4 5.0
2016-Dec-21 07:30N 29°58' W 092°50'13 4.5
2016-Dec-21 04:33N 29°56' W 093°06'4 4.1
2016-Dec-21 03:33N 29°57' W 093°10'4 4.5
2016-Dec-21 02:33N 30°00' W 093°14'4 3.5
2016-Dec-21 01:33N 30°03' W 093°16'4 3.8
2016-Dec-21 00:33N 30°06' W 093°19'4 3.8
2016-Dec-20 23:33N 30°04' W 093°22'5 4.6
2016-Dec-20 22:33N 30°04' W 093°27'  
Track history (hours):
 
Tides and Currents Weather Stations Pressure Air Temp Water Temp Dewpoint Dewpoint Depression Visibility Wind Speed Wind Dir Waves Ship Positions

Madeline

Owner: Enterprise Marine Services, LLC, San Antonio, TX. More information available from US FCC via Universal Licensing System and Coast Guard Vessel Documentation Center.

Last reported at 2016-Dec-21 20:14 UTC. Time now 2017-Jan-16 11:03 UTC.
Position N 29°49' W 091°49'.
Warning: this ship's position is 25 days out of date.

; draft 3 m.

Type: Ship (hazmat cat B). MMSI: 367350460.

Date/timePositionNaut miles runAvg speedWind from/ knotsBaromVisibWave heightAir tempDewpointWater temp
2016-Dec-21 20:14N 29°49' W 091°49'4 4.3
2016-Dec-21 19:12N 29°51' W 091°54'3 5.2
2016-Dec-21 18:33N 29°50' W 091°58'5 5.2
2016-Dec-21 17:33N 29°49' W 092°04'5 5.4
2016-Dec-21 16:33N 29°47' W 092°09'4 3.7
2016-Dec-21 15:33N 29°48' W 092°14'2 1.7
2016-Dec-21 14:33N 29°48' W 092°15'4 4.4
2016-Dec-21 13:33N 29°51' W 092°20'5 4.5
2016-Dec-21 12:33N 29°53' W 092°24'10 4.7
2016-Dec-21 10:23N 29°55' W 092°36'5 4.2
2016-Dec-21 09:15N 29°56' W 092°41'4 4.6
2016-Dec-21 08:16N 29°58' W 092°46'4 5.0
2016-Dec-21 07:30N 29°58' W 092°50'13 4.5
2016-Dec-21 04:33N 29°56' W 093°06'4 4.1
2016-Dec-21 03:33N 29°57' W 093°10'4 4.5
2016-Dec-21 02:33N 30°00' W 093°14'4 3.5
2016-Dec-21 01:33N 30°03' W 093°16'4 3.8
2016-Dec-21 00:33N 30°06' W 093°19'4 3.8
2016-Dec-20 23:33N 30°04' W 093°22'5 4.6
2016-Dec-20 22:33N 30°04' W 093°27'  

Dump ship's entire track history